Time;durP1;ratioP1;P1;durP2;ratioP2;P2;SDS_P1;SDS_P2;PMS_P1;PMS_P2;Temp;Humidity;BMP_temperature;BMP_pressure;BME280_temperature;BME280_humidity;BME280_pressure;Samples;Min_cycle;Max_cycle;Signal;HPM_P1;HPM_P2
2023/06/13 00:00:29;;;;;;;5.03;1.80;;;;;;;17.37;47.35;101988.84;5062311;28;20251;-70
2023/06/13 00:02:55;;;;;;;4.27;1.77;;;;;;;17.31;47.69;101995.72;5062039;28;20213;-70
2023/06/13 00:05:21;;;;;;;3.17;1.60;;;;;;;17.29;48.11;101992.22;5062930;28;20716;-70
2023/06/13 00:07:49;;;;;;;2.80;1.90;;;;;;;17.22;47.88;101986.09;5059630;28;20186;-70
2023/06/13 00:10:15;;;;;;;8.43;1.97;;;;;;;17.09;47.99;101989.41;5059630;28;20271;-70
2023/06/13 00:12:44;;;;;;;4.30;1.80;;;;;;;17.01;48.66;102006.59;5073741;28;20271;-70
2023/06/13 00:15:11;;;;;;;2.07;1.50;;;;;;;16.86;49.21;101998.63;5058252;28;20193;-70
2023/06/13 00:17:38;;;;;;;4.40;1.50;;;;;;;16.79;49.57;101993.34;5060837;28;20221;-70
2023/06/13 00:20:08;;;;;;;3.90;1.90;;;;;;;16.76;49.24;101991.59;5061632;28;20189;-70
2023/06/13 00:22:34;;;;;;;2.77;1.87;;;;;;;16.72;50.17;101994.13;5061689;28;20266;-70
2023/06/13 00:25:00;;;;;;;4.27;1.63;;;;;;;16.77;50.64;101992.47;5059263;28;20189;-70
2023/06/13 00:27:25;;;;;;;5.17;2.07;;;;;;;16.66;52.33;101994.03;5063589;28;20577;-70
2023/06/13 00:29:51;;;;;;;4.00;1.90;;;;;;;16.58;54.44;101988.78;5064316;28;20200;-70
2023/06/13 00:32:17;;;;;;;3.77;1.80;;;;;;;16.38;57.82;101995.34;5059313;28;20194;-70
2023/06/13 00:34:44;;;;;;;2.63;1.97;;;;;;;16.14;58.85;101983.78;5054212;28;20279;-70
2023/06/13 00:37:10;;;;;;;3.87;2.40;;;;;;;16.25;59.72;101984.84;5076398;28;20181;-70
2023/06/13 00:39:39;;;;;;;2.57;1.70;;;;;;;16.20;61.56;101994.19;5062301;28;20181;-70
2023/06/13 00:42:06;;;;;;;6.57;1.80;;;;;;;16.05;59.94;101983.63;5063303;28;20209;-70
2023/06/13 00:44:33;;;;;;;2.80;2.00;;;;;;;16.06;60.26;101982.78;5062122;28;20213;-70
2023/06/13 00:47:00;;;;;;;3.60;2.00;;;;;;;16.00;62.29;101991.34;5061862;28;20246;-70
2023/06/13 00:49:26;;;;;;;2.37;1.90;;;;;;;15.88;63.16;101990.28;5068438;28;20189;-70
2023/06/13 00:51:54;;;;;;;3.80;1.60;;;;;;;15.86;60.94;101987.66;5057544;28;20556;-70
2023/06/13 00:54:21;;;;;;;1.87;1.57;;;;;;;15.84;59.40;101978.16;5063150;28;20627;-70
2023/06/13 00:56:47;;;;;;;3.90;1.80;;;;;;;15.79;59.40;101967.72;5066027;28;20189;-70
2023/06/13 00:59:13;;;;;;;2.87;1.70;;;;;;;15.79;59.49;101980.66;5065000;28;20254;-70
2023/06/13 01:01:42;;;;;;;3.23;1.80;;;;;;;15.68;60.82;101989.06;5066837;28;20263;-70
2023/06/13 01:04:08;;;;;;;4.50;1.63;;;;;;;15.67;61.52;101998.53;5053723;28;20217;-70
2023/06/13 01:06:40;;;;;;;3.10;1.70;;;;;;;15.61;60.90;102000.13;5064182;28;20267;-70
2023/06/13 01:09:08;;;;;;;3.80;1.90;;;;;;;15.54;60.47;101994.00;5078998;28;20192;-70
2023/06/13 01:12:00;;;;;;;3.63;1.77;;;;;;;15.47;63.08;102005.03;5066327;28;20284;-70
2023/06/13 01:14:50;;;;;;;2.10;1.87;;;;;;;15.39;65.33;102006.63;5065412;28;20218;-70
2023/06/13 01:17:49;;;;;;;5.20;2.10;;;;;;;15.34;65.81;101990.16;5066485;28;20836;-70
2023/06/13 01:20:16;;;;;;;2.53;1.87;;;;;;;15.28;66.21;101996.91;5061941;28;20236;-70
2023/06/13 01:22:52;;;;;;;3.70;1.77;;;;;;;15.16;69.55;102009.56;5066522;28;20200;-70
2023/06/13 01:25:30;;;;;;;2.50;2.00;;;;;;;14.99;70.75;102003.19;5064212;28;20234;-70
2023/06/13 01:27:57;;;;;;;2.90;2.07;;;;;;;15.03;70.54;102002.44;5068106;28;20196;-70
2023/06/13 01:30:24;;;;;;;3.53;2.00;;;;;;;14.95;73.85;102009.13;5053789;28;20189;-70
2023/06/13 01:32:52;;;;;;;6.40;1.83;;;;;;;14.88;72.41;101996.97;5067482;28;20304;-70
2023/06/13 01:35:17;;;;;;;3.10;1.60;;;;;;;14.87;71.51;101987.50;5048778;28;20570;-70
2023/06/13 01:37:45;;;;;;;2.73;1.97;;;;;;;14.80;72.40;101995.94;5060973;28;20238;-70
2023/06/13 01:40:14;;;;;;;2.57;2.13;;;;;;;14.74;70.66;101977.75;5067635;28;20189;-70
2023/06/13 01:42:40;;;;;;;4.07;1.67;;;;;;;14.70;70.39;101978.53;5051534;28;20205;-70
2023/06/13 01:45:06;;;;;;;3.07;1.67;;;;;;;14.74;69.16;101973.47;5064182;28;20185;-70
2023/06/13 01:47:56;;;;;;;3.60;1.77;;;;;;;14.66;69.87;101979.31;5069176;28;20197;-70
2023/06/13 01:50:49;;;;;;;2.00;1.80;;;;;;;14.64;70.38;101989.56;5064881;28;20212;-70
2023/06/13 01:53:31;;;;;;;2.27;1.67;;;;;;;14.63;71.46;101992.13;5061769;28;20224;-70
2023/06/13 01:56:01;;;;;;;2.47;1.60;;;;;;;14.53;73.07;101995.34;5062981;28;20209;-69
2023/06/13 01:58:41;;;;;;;3.47;1.77;;;;;;;14.43;73.77;102002.03;5085005;28;20287;-69
2023/06/13 02:01:07;;;;;;;2.90;1.70;;;;;;;14.42;75.28;102001.97;5067230;28;20265;-70
2023/06/13 02:03:33;;;;;;;3.50;1.73;;;;;;;14.36;76.57;101989.81;5078292;28;20217;-69
2023/06/13 02:05:59;;;;;;;3.87;1.83;;;;;;;14.29;77.29;101990.53;5077939;28;20700;-69
2023/06/13 02:08:26;;;;;;;3.83;1.80;;;;;;;14.34;75.88;101977.75;5066429;28;20272;-69
2023/06/13 02:10:52;;;;;;;2.37;1.90;;;;;;;14.24;78.94;101983.53;5066448;28;20666;-70
2023/06/13 02:13:18;;;;;;;3.23;1.63;;;;;;;14.21;81.76;101988.59;5065482;28;20212;-69
2023/06/13 02:15:43;;;;;;;5.03;1.80;;;;;;;14.06;84.25;101988.22;5071233;28;20188;-69
2023/06/13 02:18:09;;;;;;;2.90;1.90;;;;;;;14.14;83.43;101986.69;5064559;28;20200;-69
2023/06/13 02:20:34;;;;;;;3.33;1.90;;;;;;;14.12;83.88;101978.94;5063583;28;20192;-69
2023/06/13 02:23:02;;;;;;;4.23;1.80;;;;;;;14.13;84.18;101972.09;5062918;28;20245;-69
2023/06/13 02:25:28;;;;;;;4.40;1.93;;;;;;;14.07;86.53;101983.09;5069270;28;20193;-69
2023/06/13 02:27:53;;;;;;;3.00;1.73;;;;;;;14.06;86.60;101988.22;5068079;28;20193;-69
2023/06/13 02:30:19;;;;;;;3.30;1.63;;;;;;;13.98;88.03;101989.72;5066820;28;20181;-69
2023/06/13 02:32:46;;;;;;;3.53;2.03;;;;;;;13.96;88.61;101983.69;5065629;28;20222;-69
2023/06/13 02:35:12;;;;;;;4.37;2.07;;;;;;;13.98;87.97;101984.56;5062501;28;20733;-69
2023/06/13 02:37:38;;;;;;;1.87;1.63;;;;;;;14.01;87.93;101982.09;5064188;28;20218;-69
2023/06/13 02:40:10;;;;;;;5.43;2.37;;;;;;;13.92;89.70;101990.47;5065115;28;20968;-69
2023/06/13 02:42:36;;;;;;;4.43;2.27;;;;;;;13.91;90.12;101998.16;5069135;28;20213;-69
2023/06/13 02:45:03;;;;;;;5.30;1.90;;;;;;;13.76;94.12;101997.78;5068801;28;20197;-69
2023/06/13 02:47:28;;;;;;;5.80;2.23;;;;;;;13.74;94.30;101992.59;5065298;28;20272;-69
2023/06/13 02:49:54;;;;;;;2.40;1.77;;;;;;;13.70;96.11;101997.59;5058334;28;20269;-69
2023/06/13 02:52:21;;;;;;;3.47;2.20;;;;;;;13.74;94.70;101984.88;5064646;28;20189;-70
2023/06/13 02:54:47;;;;;;;4.93;2.00;;;;;;;13.75;97.12;101990.88;5067249;28;20295;-70
2023/06/13 02:57:13;;;;;;;4.87;2.40;;;;;;;13.77;96.83;101997.81;5070547;28;20178;-70
2023/06/13 02:59:38;;;;;;;2.33;1.87;;;;;;;13.67;99.33;101997.56;5067152;28;20617;-70
2023/06/13 03:02:04;;;;;;;6.83;2.07;;;;;;;13.67;99.34;101988.09;5065861;28;20192;-70
2023/06/13 03:04:31;;;;;;;3.93;2.20;;;;;;;13.60;100.00;101987.91;5067022;28;20216;-69
2023/06/13 03:06:57;;;;;;;3.57;2.30;;;;;;;13.59;100.00;101993.91;5060347;28;20189;-70
2023/06/13 03:09:23;;;;;;;2.77;2.10;;;;;;;13.59;100.00;101989.66;5069405;28;20181;-70
2023/06/13 03:11:48;;;;;;;3.53;2.40;;;;;;;13.54;100.00;101993.78;5055800;28;20751;-70
2023/06/13 03:14:16;;;;;;;7.07;2.50;;;;;;;13.57;100.00;101995.56;5067145;28;20204;-70
2023/06/13 03:16:42;;;;;;;4.13;2.40;;;;;;;13.56;100.00;101996.38;5080026;28;20321;-70
2023/06/13 03:19:08;;;;;;;3.00;2.23;;;;;;;13.48;100.00;101991.06;5061431;28;20193;-70
2023/06/13 03:21:33;;;;;;;3.30;2.23;;;;;;;13.52;100.00;101990.31;5065790;28;20208;-70
2023/06/13 03:23:59;;;;;;;5.63;2.60;;;;;;;13.53;100.00;101981.75;5063755;28;20217;-70
2023/06/13 03:26:28;;;;;;;3.17;2.10;;;;;;;13.50;100.00;101993.66;5064453;28;20196;-69
2023/06/13 03:28:55;;;;;;;5.60;3.00;;;;;;;13.42;100.00;101997.72;5070237;28;20294;-69
2023/06/13 03:31:20;;;;;;;6.87;2.80;;;;;;;13.49;100.00;101986.78;5064090;28;20349;-69
2023/06/13 03:33:46;;;;;;;4.90;2.60;;;;;;;13.36;100.00;101995.00;5062393;28;20634;-69
2023/06/13 03:36:12;;;;;;;3.50;2.60;;;;;;;13.41;100.00;101986.59;5050429;28;20234;-69
2023/06/13 03:38:37;;;;;;;2.57;2.37;;;;;;;13.40;100.00;101982.25;5063214;28;20575;-69
2023/06/13 03:41:03;;;;;;;2.93;2.27;;;;;;;13.38;100.00;101981.34;5066120;28;20185;-69
2023/06/13 03:43:29;;;;;;;4.20;2.33;;;;;;;13.36;100.00;101983.03;5065813;28;20210;-69
2023/06/13 03:45:55;;;;;;;4.93;2.57;;;;;;;13.39;100.00;101977.94;5064415;28;20239;-69
2023/06/13 03:48:21;;;;;;;4.33;2.70;;;;;;;13.37;100.00;101974.47;5063537;28;20846;-69
2023/06/13 03:50:46;;;;;;;6.83;2.63;;;;;;;13.42;100.00;101972.88;5062692;28;20222;-69
2023/06/13 03:53:12;;;;;;;4.40;2.60;;;;;;;13.43;100.00;101974.63;5063924;28;20215;-69
2023/06/13 03:55:37;;;;;;;5.17;2.50;;;;;;;13.43;100.00;101978.88;5068714;28;20270;-69
2023/06/13 03:58:03;;;;;;;4.40;2.80;;;;;;;13.43;100.00;101972.06;5068450;28;20322;-69
2023/06/13 04:00:32;;;;;;;6.20;2.67;;;;;;;13.45;100.00;101980.66;5057055;28;20268;-69
2023/06/13 04:03:00;;;;;;;3.40;2.40;;;;;;;13.48;100.00;101985.91;5062707;28;20640;-70
2023/06/13 04:05:26;;;;;;;4.87;2.60;;;;;;;13.46;100.00;101982.44;5063493;28;20177;-69
2023/06/13 04:07:53;;;;;;;4.80;2.63;;;;;;;13.48;100.00;101978.19;5061698;28;20685;-70
2023/06/13 04:10:19;;;;;;;4.47;2.50;;;;;;;13.49;100.00;101971.34;5064517;28;20181;-70
2023/06/13 04:12:45;;;;;;;8.13;2.40;;;;;;;13.47;100.00;101976.44;5066967;28;20195;-70
2023/06/13 04:15:10;;;;;;;5.93;2.60;;;;;;;13.52;100.00;101974.84;5065516;28;20560;-69
2023/06/13 04:17:36;;;;;;;3.73;2.57;;;;;;;13.61;100.00;101969.06;5066903;28;20205;-69
2023/06/13 04:20:04;;;;;;;5.57;3.23;;;;;;;13.61;100.00;101969.94;5063933;28;20267;-69
2023/06/13 04:22:31;;;;;;;3.50;3.03;;;;;;;13.61;100.00;101967.38;5064495;28;20204;-70
2023/06/13 04:24:56;;;;;;;12.47;2.73;;;;;;;13.63;100.00;101973.41;5065175;28;21326;-70
2023/06/13 04:27:28;;;;;;;4.97;2.70;;;;;;;13.71;100.00;101960.75;5068229;28;20177;-70
2023/06/13 04:29:55;;;;;;;3.87;2.83;;;;;;;13.77;100.00;101972.06;5070814;28;20267;-70
2023/06/13 04:32:23;;;;;;;5.47;2.90;;;;;;;13.73;100.00;101970.25;5065377;28;20172;-70
2023/06/13 04:34:53;;;;;;;3.97;2.93;;;;;;;13.83;100.00;101963.63;5065982;28;20212;-70
2023/06/13 04:37:25;;;;;;;4.57;2.90;;;;;;;13.91;100.00;101962.09;5070046;28;20196;-69
2023/06/13 04:39:52;;;;;;;7.50;3.13;;;;;;;14.02;100.00;101965.78;5070353;28;20190;-69
2023/06/13 04:42:26;;;;;;;6.00;2.77;;;;;;;14.01;100.00;101975.25;5071920;28;20188;-69
2023/06/13 04:44:53;;;;;;;7.00;2.90;;;;;;;14.07;100.00;101982.22;5070177;28;20266;-69
2023/06/13 04:47:32;;;;;;;6.17;3.57;;;;;;;14.16;100.00;101970.44;5068462;28;20189;-69
2023/06/13 04:49:58;;;;;;;8.70;2.90;;;;;;;14.27;100.00;101969.00;5066527;28;20196;-69
2023/06/13 04:52:32;;;;;;;7.23;3.43;;;;;;;14.34;100.00;101967.44;5068464;28;20708;-69
2023/06/13 04:55:02;;;;;;;6.07;3.00;;;;;;;14.41;100.00;101980.47;5071059;28;20196;-69
2023/06/13 04:57:28;;;;;;;6.50;3.03;;;;;;;14.42;100.00;101978.78;5076488;28;20196;-69
2023/06/13 04:59:58;;;;;;;4.33;2.63;;;;;;;14.55;100.00;101971.34;5071399;28;20191;-69
2023/06/13 05:02:23;;;;;;;6.60;2.90;;;;;;;14.70;100.00;101958.78;5068787;28;20638;-69
2023/06/13 05:04:49;;;;;;;7.07;3.40;;;;;;;14.84;100.00;101957.34;5072546;28;20212;-69
2023/06/13 05:07:16;;;;;;;6.60;3.40;;;;;;;14.86;100.00;101975.41;5069045;28;20651;-69
2023/06/13 05:09:43;;;;;;;6.93;3.50;;;;;;;15.00;100.00;101971.41;5066069;28;20193;-69
2023/06/13 05:12:10;;;;;;;5.53;3.10;;;;;;;15.12;100.00;101957.06;5075552;28;20196;-70
2023/06/13 05:14:40;;;;;;;6.77;3.17;;;;;;;15.25;100.00;101963.31;5073920;28;20205;-69
2023/06/13 05:17:06;;;;;;;5.63;3.40;;;;;;;15.34;100.00;101969.50;5066350;28;20276;-70
2023/06/13 05:19:34;;;;;;;9.13;3.33;;;;;;;15.36;100.00;101973.00;5069512;28;20185;-69
2023/06/13 05:22:02;;;;;;;8.17;3.07;;;;;;;15.49;100.00;101971.50;5066098;28;20180;-70
2023/06/13 05:24:28;;;;;;;4.40;2.73;;;;;;;15.59;100.00;101965.66;5053715;28;20874;-70
2023/06/13 05:26:54;;;;;;;5.03;3.20;;;;;;;15.60;100.00;101976.03;5075887;28;20192;-70
2023/06/13 05:29:19;;;;;;;4.93;2.77;;;;;;;15.68;100.00;101979.59;5069185;28;20523;-70
2023/06/13 05:31:44;;;;;;;4.30;2.70;;;;;;;15.77;100.00;101961.69;5065692;28;20181;-70
2023/06/13 05:34:10;;;;;;;5.47;3.33;;;;;;;15.92;100.00;101968.78;5065873;28;20198;-70
2023/06/13 05:36:35;;;;;;;4.67;3.40;;;;;;;16.05;100.00;101952.63;5069057;28;20571;-70
2023/06/13 05:39:01;;;;;;;8.03;3.27;;;;;;;16.16;100.00;101957.13;5067079;28;20197;-70
2023/06/13 05:41:26;;;;;;;4.80;2.90;;;;;;;16.27;100.00;101952.09;5070958;28;20262;-69
2023/06/13 05:43:52;;;;;;;3.93;3.30;;;;;;;16.26;100.00;101950.38;5072570;28;20265;-70
2023/06/13 05:46:18;;;;;;;4.63;3.13;;;;;;;16.49;100.00;101928.31;5067800;28;20200;-69
2023/06/13 05:48:43;;;;;;;6.70;3.07;;;;;;;16.60;100.00;101929.31;5068543;28;20181;-69
2023/06/13 05:51:08;;;;;;;4.73;2.70;;;;;;;16.68;100.00;101932.88;5067408;28;20185;-69
2023/06/13 05:53:34;;;;;;;2.90;2.50;;;;;;;16.82;100.00;101919.25;5073569;28;20697;-70
2023/06/13 05:56:00;;;;;;;5.00;2.87;;;;;;;16.86;100.00;101920.16;5066028;28;20205;-70
2023/06/13 05:58:25;;;;;;;5.60;2.70;;;;;;;17.09;100.00;101918.66;5073765;28;20178;-69
2023/06/13 06:00:52;;;;;;;3.50;2.60;;;;;;;17.19;100.00;101887.72;5068220;28;20661;-70
2023/06/13 06:03:18;;;;;;;4.43;2.73;;;;;;;17.32;100.00;101893.88;5082912;28;20304;-70
2023/06/13 06:05:44;;;;;;;3.63;2.70;;;;;;;17.39;100.00;101887.88;5068138;28;20222;-70
2023/06/13 06:08:09;;;;;;;2.97;2.50;;;;;;;17.51;100.00;101885.44;5068610;28;20217;-69
2023/06/13 06:10:35;;;;;;;4.10;2.33;;;;;;;17.68;100.00;101879.50;5071424;28;20216;-70
2023/06/13 06:13:00;;;;;;;11.03;2.97;;;;;;;17.86;100.00;101870.97;5070749;28;20669;-70
2023/06/13 06:15:25;;;;;;;3.63;2.47;;;;;;;17.98;100.00;101843.44;5069601;28;20793;-70
2023/06/13 06:17:51;;;;;;;4.53;2.37;;;;;;;18.12;100.00;101822.75;5068768;28;20765;-70
2023/06/13 06:20:17;;;;;;;4.77;2.53;;;;;;;18.27;100.00;101813.31;5065935;28;20238;-70
2023/06/13 06:22:42;;;;;;;6.33;2.80;;;;;;;18.44;100.00;101805.59;5057706;28;20205;-69
2023/06/13 06:25:12;;;;;;;5.17;2.47;;;;;;;18.50;100.00;101769.28;5051682;28;20273;-70
2023/06/13 06:27:39;;;;;;;7.80;2.40;;;;;;;18.61;100.00;101765.84;5075735;28;20275;-70
2023/06/13 06:30:05;;;;;;;6.03;2.60;;;;;;;18.68;100.00;101749.44;5065782;28;20204;-70
2023/06/13 06:32:31;;;;;;;5.47;2.60;;;;;;;18.75;100.00;101756.34;5070996;28;20204;-70
2023/06/13 06:34:56;;;;;;;4.60;2.50;;;;;;;18.98;100.00;101726.06;5070626;28;20197;-70
2023/06/13 06:37:22;;;;;;;4.97;2.03;;;;;;;18.91;94.95;101681.94;5067811;28;20226;-70
2023/06/13 06:39:48;;;;;;;5.23;2.20;;;;;;;19.09;94.35;101669.81;5066923;28;20276;-70
2023/06/13 06:42:13;;;;;;;2.30;1.93;;;;;;;19.35;96.04;101674.97;5071579;28;20562;-70
2023/06/13 06:44:51;;;;;;;4.30;2.37;;;;;;;19.40;90.86;101650.69;5062238;28;20224;-70
2023/06/13 06:47:17;;;;;;;2.97;2.33;;;;;;;19.54;91.31;101641.13;5067121;28;20182;-70
2023/06/13 06:49:42;;;;;;;3.17;2.27;;;;;;;19.55;87.03;101624.66;5084427;28;20662;-70
2023/06/13 06:52:08;;;;;;;4.43;2.10;;;;;;;19.63;87.90;101617.69;5051855;28;20182;-70
2023/06/13 06:54:34;;;;;;;6.10;2.17;;;;;;;19.88;83.09;101597.59;5066148;28;20299;-70
2023/06/13 06:56:59;;;;;;;5.13;2.30;;;;;;;20.01;84.09;101602.75;5074726;28;20267;-70
2023/06/13 06:59:25;;;;;;;4.70;2.23;;;;;;;20.16;84.32;101609.56;5068757;28;20192;-70
2023/06/13 07:01:50;;;;;;;6.23;2.30;;;;;;;20.25;86.31;101609.50;5066623;28;20188;-70
2023/06/13 07:04:16;;;;;;;3.00;2.13;;;;;;;20.33;81.82;101582.56;5061023;28;20205;-70
2023/06/13 07:06:42;;;;;;;6.33;2.07;;;;;;;20.46;80.89;101586.78;5065920;28;20327;-70
2023/06/13 07:09:10;;;;;;;3.10;2.30;;;;;;;20.43;77.70;101559.91;5067815;28;20198;-70
2023/06/13 07:11:35;;;;;;;3.10;2.20;;;;;;;20.57;79.76;101565.84;5072676;28;20189;-70
2023/06/13 07:14:01;;;;;;;3.43;1.93;;;;;;;20.78;76.00;101553.47;5067775;28;20757;-70
2023/06/13 07:16:26;;;;;;;4.47;2.23;;;;;;;20.89;75.42;101540.34;5066794;28;20374;-70
2023/06/13 07:18:52;;;;;;;3.10;2.30;;;;;;;21.06;73.15;101533.25;5064814;28;20561;-70
2023/06/13 07:21:17;;;;;;;3.67;2.10;;;;;;;21.08;72.25;101528.84;5063556;28;20569;-70
2023/06/13 07:23:43;;;;;;;3.07;2.30;;;;;;;21.13;69.06;101514.03;5069027;28;20583;-70
2023/06/13 07:26:08;;;;;;;5.57;2.23;;;;;;;21.31;65.14;101505.97;5066110;28;20189;-70
2023/06/13 07:28:34;;;;;;;3.60;2.03;;;;;;;21.41;67.43;101529.28;5074622;28;20272;-70
2023/06/13 07:30:59;;;;;;;4.77;2.30;;;;;;;21.71;68.88;101534.09;5062450;28;20236;-70
2023/06/13 07:33:25;;;;;;;7.27;2.17;;;;;;;21.82;65.66;101523.47;5066608;28;20213;-70
2023/06/13 07:35:52;;;;;;;3.23;2.20;;;;;;;21.92;60.17;101494.63;5063368;28;20668;-70
2023/06/13 07:38:19;;;;;;;3.73;1.83;;;;;;;22.06;59.94;101513.53;5063244;28;20185;-70
2023/06/13 07:40:46;;;;;;;2.17;1.77;;;;;;;21.91;55.97;101507.69;5067208;28;20193;-70
2023/06/13 07:43:11;;;;;;;3.77;2.00;;;;;;;22.11;55.73;101529.13;5064791;28;20217;-70
2023/06/13 07:45:36;;;;;;;3.17;1.87;;;;;;;22.24;55.79;101546.25;5064196;28;20215;-70
2023/06/13 07:48:02;;;;;;;3.47;2.03;;;;;;;22.46;56.04;101554.66;5060609;28;20243;-70
2023/06/13 07:50:28;;;;;;;5.43;2.20;;;;;;;22.51;55.05;101544.97;5069930;28;20193;-70
2023/06/13 07:52:53;;;;;;;4.07;1.90;;;;;;;22.74;53.47;101538.41;5067645;28;20237;-70
2023/06/13 07:55:19;;;;;;;4.07;1.80;;;;;;;22.86;52.42;101543.41;5065490;28;20689;-70
2023/06/13 07:57:45;;;;;;;6.80;1.90;;;;;;;22.89;52.46;101611.31;5064688;28;20177;-71
2023/06/13 08:00:17;;;;;;;4.03;1.90;;;;;;;23.09;50.32;101598.72;5063896;28;20957;-70
2023/06/13 08:02:44;;;;;;;4.00;2.00;;;;;;;23.42;48.97;101594.56;5067472;28;20226;-70
2023/06/13 08:05:10;;;;;;;4.23;2.13;;;;;;;23.38;50.29;101635.59;5064520;28;20196;-70
2023/06/13 08:07:36;;;;;;;4.63;2.10;;;;;;;23.49;49.86;101631.03;5068775;28;20185;-70
2023/06/13 08:10:01;;;;;;;5.43;2.20;;;;;;;23.80;49.81;101631.25;5067100;28;20566;-70
2023/06/13 08:12:27;;;;;;;3.13;2.00;;;;;;;23.57;47.98;101613.41;5061122;28;20182;-70
2023/06/13 08:14:52;;;;;;;4.57;2.07;;;;;;;23.66;46.75;101605.38;5063602;28;20269;-70
2023/06/13 08:17:18;;;;;;;3.27;1.90;;;;;;;23.86;46.95;101626.75;5067322;28;20212;-70
2023/06/13 08:19:48;;;;;;;5.20;2.20;;;;;;;23.92;45.65;101617.91;5070496;28;20184;-71
2023/06/13 08:22:17;;;;;;;4.17;2.40;;;;;;;24.10;45.65;101620.09;5064604;28;20311;-71
2023/06/13 08:24:43;;;;;;;6.37;2.40;;;;;;;24.29;46.01;101642.31;5064794;28;20240;-71
2023/06/13 08:27:10;;;;;;;2.73;2.20;;;;;;;24.47;46.57;101634.03;5061237;28;20236;-71
2023/06/13 08:29:36;;;;;;;3.77;2.00;;;;;;;24.74;45.16;101618.50;5071452;28;20185;-72
2023/06/13 08:32:02;;;;;;;3.83;2.17;;;;;;;24.58;44.91;101627.63;5066205;28;20203;-71
2023/06/13 08:34:27;;;;;;;3.60;2.00;;;;;;;24.74;44.66;101625.50;5068787;28;20247;-71
2023/06/13 08:36:53;;;;;;;5.87;2.40;;;;;;;24.66;43.11;101630.94;5067594;28;20497;-71
2023/06/13 08:39:20;;;;;;;6.00;2.50;;;;;;;24.77;43.42;101625.44;5065129;28;20605;-71
2023/06/13 08:41:46;;;;;;;2.87;2.20;;;;;;;24.94;42.54;101621.44;5060119;28;20193;-71
2023/06/13 08:44:12;;;;;;;4.63;1.90;;;;;;;24.95;41.95;101615.28;5066062;28;20223;-71
2023/06/13 08:46:37;;;;;;;6.77;2.27;;;;;;;25.16;42.31;101634.81;5072323;28;20233;-71
2023/06/13 08:49:03;;;;;;;3.77;2.20;;;;;;;25.26;42.88;101638.91;5065534;28;20285;-71
2023/06/13 08:51:30;;;;;;;3.85;2.20;;;;;;;25.33;41.75;101628.22;5071239;28;20193;-71
2023/06/13 08:53:59;;;;;;;6.35;2.20;;;;;;;25.48;40.67;101611.19;5068042;28;20224;-71
2023/06/13 08:56:28;;;;;;;3.22;1.80;;;;;;;25.58;37.74;101610.88;5059438;28;20189;-71
2023/06/13 08:59:00;;;;;;;6.93;2.42;;;;;;;25.45;38.51;101627.00;5066100;28;20653;-72
2023/06/13 09:01:27;;;;;;;2.83;1.90;;;;;;;25.64;38.63;101630.84;5068320;28;20190;-71
2023/06/13 09:03:56;;;;;;;6.03;2.30;;;;;;;25.69;40.41;101665.69;5068900;28;20628;-72
2023/06/13 09:06:22;;;;;;;5.90;2.30;;;;;;;25.78;40.61;101668.88;5066083;28;20732;-72
2023/06/13 09:08:48;;;;;;;3.30;1.92;;;;;;;25.86;38.65;101645.03;5069975;28;20690;-71
2023/06/13 09:11:14;;;;;;;5.05;2.05;;;;;;;26.00;38.45;101619.22;5057892;28;20198;-71
2023/06/13 09:13:40;;;;;;;6.53;2.03;;;;;;;25.86;37.64;101634.53;5065692;28;20272;-71
2023/06/13 09:16:06;;;;;;;3.13;2.10;;;;;;;25.95;37.88;101639.53;5068334;28;20196;-72
2023/06/13 09:18:36;;;;;;;3.78;2.17;;;;;;;25.93;37.98;101629.06;5075295;28;20208;-72
2023/06/13 09:21:02;;;;;;;4.13;2.15;;;;;;;26.43;37.52;101619.59;5069006;28;20192;-71
2023/06/13 09:23:29;;;;;;;3.00;2.28;;;;;;;26.60;37.05;101612.00;5070911;28;20213;-71
2023/06/13 09:25:56;;;;;;;6.72;2.33;;;;;;;26.62;36.58;101616.28;5066879;28;20204;-72
2023/06/13 09:28:42;;;;;;;3.50;2.40;;;;;;;26.73;37.63;101643.09;5070003;28;20193;-72
2023/06/13 09:31:08;;;;;;;4.03;2.10;;;;;;;26.39;37.34;101621.44;5065002;28;20213;-71
2023/06/13 09:33:38;;;;;;;4.78;2.22;;;;;;;26.77;37.56;101631.56;5075039;28;20233;-71
2023/06/13 09:36:05;;;;;;;4.20;2.35;;;;;;;26.77;36.98;101617.56;5072402;28;20504;-71
2023/06/13 09:38:34;;;;;;;4.30;2.08;;;;;;;26.89;36.00;101603.97;5071122;28;20178;-71
2023/06/13 09:41:03;;;;;;;3.05;2.00;;;;;;;26.93;36.79;101616.97;5061400;28;20235;-71
2023/06/13 09:43:28;;;;;;;7.88;2.90;;;;;;;27.14;37.09;101631.97;5068009;28;20668;-71
2023/06/13 09:45:54;;;;;;;3.13;2.25;;;;;;;27.28;37.14;101627.13;5074719;28;20180;-71
2023/06/13 09:48:21;;;;;;;3.80;2.20;;;;;;;27.28;36.06;101602.56;5071660;28;20561;-71
2023/06/13 09:50:48;;;;;;;2.40;2.15;;;;;;;27.44;36.92;101607.19;5070251;28;20607;-71
2023/06/13 09:53:13;;;;;;;3.28;2.13;;;;;;;27.77;37.58;101641.91;5070046;28;20698;-72
2023/06/13 09:55:39;;;;;;;2.95;2.28;;;;;;;27.21;36.19;101614.25;5064919;28;20267;-71
2023/06/13 09:58:05;;;;;;;3.90;2.42;;;;;;;27.32;37.63;101641.88;5060296;28;20639;-72
2023/06/13 10:00:31;;;;;;;2.17;1.92;;;;;;;27.31;38.02;101648.03;5072960;28;20293;-71
2023/06/13 10:02:56;;;;;;;4.38;2.17;;;;;;;27.54;36.83;101624.34;5074395;28;20277;-71
2023/06/13 10:05:23;;;;;;;5.57;2.50;;;;;;;27.79;37.62;101622.50;5069711;28;20245;-71
2023/06/13 10:07:48;;;;;;;4.18;2.60;;;;;;;27.94;36.72;101589.44;5074245;28;20293;-71
2023/06/13 10:10:14;;;;;;;3.08;2.10;;;;;;;27.67;37.40;101595.81;5062944;28;20232;-71
2023/06/13 10:12:45;;;;;;;3.95;2.33;;;;;;;27.53;35.06;101571.78;5066480;28;20201;-72
2023/06/13 10:15:14;;;;;;;5.38;2.38;;;;;;;27.62;33.75;101568.75;5067902;28;20342;-71
2023/06/13 10:17:42;;;;;;;3.30;2.78;;;;;;;27.04;33.26;101567.47;5076127;28;20265;-71
2023/06/13 10:20:11;;;;;;;4.80;2.58;;;;;;;27.50;34.44;101593.78;5072533;28;20235;-71
2023/06/13 10:22:39;;;;;;;5.57;2.38;;;;;;;27.54;35.45;101607.72;5071263;28;20201;-71
2023/06/13 10:25:10;;;;;;;3.78;2.40;;;;;;;27.89;35.18;101605.44;5061370;28;20209;-71
2023/06/13 10:27:40;;;;;;;2.88;2.53;;;;;;;28.04;34.20;101582.91;5064854;28;20190;-71
2023/06/13 10:30:11;;;;;;;4.90;2.38;;;;;;;28.36;34.14;101585.09;5072435;28;20193;-71
2023/06/13 10:32:56;;;;;;;4.85;2.53;;;;;;;27.55;31.76;101560.28;5074000;28;20189;-71
2023/06/13 10:35:22;;;;;;;5.60;3.00;;;;;;;27.63;31.34;101562.59;5054857;28;20186;-71
2023/06/13 10:38:05;;;;;;;8.57;3.03;;;;;;;26.59;32.56;101576.13;5071585;28;20553;-71
2023/06/13 10:40:33;;;;;;;4.07;2.95;;;;;;;27.88;34.79;101653.78;5067153;28;20185;-71
2023/06/13 10:43:02;;;;;;;6.32;2.45;;;;;;;27.83;33.04;101613.59;5062804;28;20229;-71
2023/06/13 10:45:30;;;;;;;3.15;2.33;;;;;;;28.11;34.04;101626.53;5069808;28;20185;-71
2023/06/13 10:47:59;;;;;;;4.95;2.53;;;;;;;28.55;34.24;101622.97;5072968;28;20595;-71
2023/06/13 10:50:24;;;;;;;4.80;2.67;;;;;;;28.39;33.17;101569.13;5068246;28;20189;-71
2023/06/13 10:52:54;;;;;;;2.63;2.38;;;;;;;28.49;33.63;101604.75;5069565;28;20191;-71
2023/06/13 10:55:25;;;;;;;4.32;2.50;;;;;;;28.60;34.55;101600.72;5061566;28;20201;-71
2023/06/13 10:57:51;;;;;;;3.80;2.35;;;;;;;28.66;34.45;101607.53;5056082;28;20178;-71
2023/06/13 11:00:27;;;;;;;3.67;3.03;;;;;;;28.86;35.18;101624.22;5071095;28;20193;-71
2023/06/13 11:02:57;;;;;;;5.25;2.60;;;;;;;28.87;35.51;101638.28;5069894;28;20602;-71
2023/06/13 11:05:23;;;;;;;5.00;2.83;;;;;;;28.96;35.35;101620.25;5072657;28;20255;-71
2023/06/13 11:07:48;;;;;;;3.17;2.88;;;;;;;28.76;34.59;101596.53;5062449;28;20185;-71
2023/06/13 11:10:17;;;;;;;5.55;2.88;;;;;;;28.86;36.51;101632.13;5062920;28;20193;-71
2023/06/13 11:12:43;;;;;;;9.27;2.90;;;;;;;29.30;36.66;101648.69;5067233;28;20680;-72
2023/06/13 11:15:21;;;;;;;6.20;2.80;;;;;;;28.95;35.11;101596.56;5063794;28;20193;-71
2023/06/13 11:18:04;;;;;;;5.80;3.13;;;;;;;29.09;36.20;101625.88;5067468;28;20279;-71
2023/06/13 11:20:49;;;;;;;5.70;2.95;;;;;;;29.10;35.36;101607.34;5066136;28;20268;-71
2023/06/13 11:23:22;;;;;;;6.75;2.95;;;;;;;29.17;34.40;101565.69;5062984;28;20588;-72